Flight Track Log - Related Links

Times and Time Zones

All times are in EDT time to prevent confusion due to time zone crossing. See the EGF4218 flight status page for this flight to view local times or setup timezone preferences in your user account.

Time Position Orientation Groundspeed Altitude Reporting Facility
EDT Latitude Longitude Course Direction KTS MPH feet Rate Location/Type
Fri 11:24:33 AM 41.9667 -87.8667 194° South 171 197 2,000  Level Chicago TRACON
Fri 11:25:27 AM 41.9167 -87.8333 154° Southeast 240 276 3,500 1,750 Climbing Chicago TRACON
Fri 11:25:45 AM 41.9050 -87.8272 159° South 244 281 4,100 2,175 Climbing Chicago Center
Fri 11:26:00 AM 41.7810 -88.2216 203° Southwest  Level Estimated
Fri 11:26:47 AM 41.8333 -87.8269 180° South 256 295 6,400  Level Chicago Center
Fri 11:27:00 AM 41.7139 -88.3262 197° South  Level Estimated
Fri 11:27:49 AM 41.7692 -87.8800 212° Southwest 274 315 8,500  Level Chicago Center
Fri 11:28:00 AM 41.6208 -88.2675 155° Southeast  Level FlightAware Approximate
Fri 11:28:51 AM 41.7036 -87.9339 212° Southwest 279 321 10,600  Level Chicago Center
Fri 11:29:00 AM 41.5546 -88.3729 194° South  Level Estimated
Fri 11:29:53 AM 41.6328 -87.9917 211° Southwest 298 343 12,300  Level Chicago Center
Fri 11:30:55 AM 41.5419 -88.0664 212° Southwest 322 371 13,600 1,113 Climbing Chicago Center
Fri 11:31:57 AM 41.4614 -88.1322 211° Southwest 346 398 14,600 968 Climbing Chicago Center
Fri 11:32:59 AM 41.3753 -88.1956 209° Southwest 368 423 15,600 968 Climbing Chicago Center
Fri 11:34:01 AM 41.2761 -88.2392 198° South 382 440 16,600 1,065 Climbing Chicago Center
Fri 11:35:03 AM 41.1561 -88.2928 199° South 382 440 17,800 1,065 Climbing Chicago Center
Fri 11:36:05 AM 41.0542 -88.3392 199° South 389 448 18,800 968 Climbing Chicago Center
Fri 11:37:07 AM 40.9506 -88.3858 199° South 393 452 19,800 968 Climbing Chicago Center
Fri 11:38:09 AM 40.8453 -88.4325 199° South 399 459 20,800 968 Climbing Chicago Center
Fri 11:39:11 AM 40.7392 -88.4806 199° South 404 465 21,800 1,065 Climbing Chicago Center
Fri 11:40:13 AM 40.6094 -88.5361 198° South 408 470 23,000 1,065 Climbing Chicago Center
Fri 11:41:15 AM 40.5025 -88.5842 199° South 407 468 24,000 919 Climbing Chicago Center
Fri 11:42:17 AM 40.4033 -88.6283 199° South 408 470 24,900 919 Climbing Chicago Center
Fri 11:43:19 AM 40.3031 -88.6922 206° Southwest 409 471 25,900 1,065 Climbing Chicago Center
Fri 11:44:21 AM 40.2219 -88.8256 231° Southwest 393 452 27,100 1,065 Climbing Chicago Center
Fri 11:45:23 AM 40.1578 -88.9364 233° Southwest 385 443 28,100 968 Climbing Chicago Center
Fri 11:46:25 AM 40.0922 -89.0467 232° Southwest 383 441 29,100 973 Climbing Chicago Center
Fri 11:47:14 AM 40.0392 -89.1336 231° Southwest 381 438 29,900 486 Climbing Kansas City Center
Fri 11:48:16 AM 39.9725 -89.2433 232° Southwest 382 440 30,000 48 Climbing Kansas City Center
Fri 11:49:18 AM 39.9022 -89.3603 232° Southwest 398 458 30,000  Level Kansas City Center
Fri 11:50:20 AM 39.8292 -89.4819 232° Southwest 415 478 30,000  Level Kansas City Center
Fri 11:51:22 AM 39.7553 -89.6022 231° Southwest 421 484 30,000  Level Kansas City Center
Fri 11:52:24 AM 39.6683 -89.7467 232° Southwest 422 486 30,000  Level Kansas City Center
Fri 11:53:26 AM 39.5961 -89.8678 232° Southwest 423 487 30,000 290 Level Kansas City Center
Fri 11:54:28 AM 39.5222 -89.9864 231° Southwest 425 489 30,600 774 Climbing Kansas City Center
Fri 11:55:30 AM 39.4508 -90.1022 231° Southwest 418 481 31,600 677 Climbing Kansas City Center
Fri 11:56:32 AM 39.3803 -90.2172 232° Southwest 413 475 32,000 -290 Climbing Kansas City Center
Fri 11:57:34 AM 39.2919 -90.3603 231° Southwest 422 486 31,000 -968 Descending Kansas City Center
Fri 11:58:36 AM 39.2175 -90.4800 231° Southwest 428 493 30,000 -480 Descending Kansas City Center
Fri 11:59:39 AM 39.1411 -90.6014 231° Southwest 436 502 30,000  Level Kansas City Center
Fri 12:00:41 PM 39.0669 -90.7192 231° Southwest 430 495 30,000  Level Kansas City Center
Fri 12:01:43 PM 38.9919 -90.8400 231° Southwest 433 498 30,000  Level Kansas City Center
Fri 12:02:45 PM 38.9014 -90.9842 231° Southwest 436 502 30,000  Level Kansas City Center
Fri 12:03:47 PM 38.8253 -91.1050 231° Southwest 438 504 30,000  Level Kansas City Center
Fri 12:04:49 PM 38.7489 -91.2250 231° Southwest 437 503 30,000  Level Kansas City Center
Fri 12:05:51 PM 38.6719 -91.3464 231° Southwest 440 506 30,000  Level Kansas City Center
Fri 12:06:53 PM 38.5839 -91.4850 231° Southwest 441 507 30,000  Level Kansas City Center
Fri 12:07:55 PM 38.5047 -91.6058 230° Southwest 441 507 30,000  Level Kansas City Center
Fri 12:08:57 PM 38.4256 -91.7267 230° Southwest 442 509 30,000  Level Kansas City Center
Fri 12:09:59 PM 38.3464 -91.8489 230° Southwest 445 512 30,000  Level Kansas City Center
Fri 12:11:01 PM 38.2667 -91.9692 230° Southwest 444 511 30,000  Level Kansas City Center
Fri 12:12:03 PM 38.1850 -92.0953 231° Southwest 445 512 30,000  Level Kansas City Center
Fri 12:13:05 PM 38.1050 -92.2147 230° Southwest 445 512 30,000  Level Kansas City Center
Fri 12:14:07 PM 38.0078 -92.3619 230° Southwest 452 520 30,000  Level Kansas City Center
Fri 12:15:09 PM 37.9292 -92.4836 231° Southwest 452 520 30,000  Level Kansas City Center
Fri 12:16:11 PM 37.8486 -92.6022 229° Southwest 447 514 30,000  Level Kansas City Center
Fri 12:17:13 PM 37.7686 -92.7228 230° Southwest 449 517 30,000  Level Kansas City Center
Fri 12:18:15 PM 37.6794 -92.8564 230° Southwest 451 519 30,000  Level Kansas City Center
Fri 12:19:17 PM 37.5967 -92.9767 229° Southwest 452 520 30,000  Level Kansas City Center
Fri 12:20:20 PM 37.5142 -93.0969 229° Southwest 453 521 30,000  Level Kansas City Center
Fri 12:21:22 PM 37.4328 -93.2206 230° Southwest 456 525 30,000  Level Kansas City Center
Fri 12:22:24 PM 37.3439 -93.3756 234° Southwest 460 529 30,000  Level Kansas City Center
Fri 12:23:26 PM 37.2978 -93.5219 248° West 454 522 30,000  Level Kansas City Center
Fri 12:24:28 PM 37.2528 -93.6678 249° West 448 516 30,000  Level Kansas City Center
Fri 12:25:30 PM 37.2067 -93.8122 248° West 446 513 30,000  Level Kansas City Center
Fri 12:26:32 PM 37.1622 -93.9594 249° West 448 516 30,000 -290 Level Kansas City Center
Fri 12:27:34 PM 37.1158 -94.1069 249° West 446 513 29,400 -1,016 Descending Kansas City Center
Fri 12:28:36 PM 37.0697 -94.2511 248° West 446 513 27,900 -1,403 Descending Kansas City Center
Fri 12:29:38 PM 37.0236 -94.3983 249° West 451 519 26,500 -1,694 Descending Kansas City Center
Fri 12:30:40 PM 36.9661 -94.5761 248° West 456 525 24,400 -1,935 Descending Kansas City Center
Fri 12:31:42 PM 36.9211 -94.7203 249° West 448 516 22,500 -1,887 Descending Kansas City Center
Fri 12:32:44 PM 36.8742 -94.8617 247° West 445 512 20,500 -1,935 Descending Kansas City Center
Fri 12:33:46 PM 36.8300 -94.9992 248° West 434 499 18,500 -1,806 Descending Kansas City Center
Fri 12:35:50 PM 36.6792 -95.2067 228° Southwest 406 467 14,900 -1,833 Descending Kansas City Center
Fri 12:36:10 PM 36.6428 -95.2500 224° Southwest 386 444 14,100 -2,160 Descending Kansas City Center
Fri 12:36:40 PM 36.6014 -95.3025 226° Southwest 391 450 13,100 -1,788 Descending Kansas City Center
Fri 12:37:54 PM 36.5083 -95.4136 224° Southwest 392 451 11,000 -1,475 Descending Kansas City Center
Fri 12:38:42 PM 36.4503 -95.4897 227° Southwest 373 429 10,100 -484 Descending Kansas City Center
Fri 12:39:58 PM 36.4119 -95.6111 249° West 336 387 10,000 -49 Descending Kansas City Center
Fri 12:40:44 PM 36.3794 -95.7122 248° West 330 380 10,000  Level Kansas City Center
Fri 12:41:00 PM 36.3728 -95.7367 251° West 329 379 10,000 -1,300 Level Kansas City Center
Fri 12:41:44 PM 36.3494 -95.8017 246° West 274 315 8,700 -1,839 Descending Kansas City Center
Fri 12:42:02 PM 36.3428 -95.8244 250° West 284 327 8,100 -2,182 Descending Kansas City Center
Fri 12:42:39 PM 36.3208 -95.8833 245° Southwest 276 318 6,700 -2,226 Descending Kansas City Center
Fri 12:43:04 PM 36.3125 -95.9142 251° West 281 323 5,800 -2,160 Descending Kansas City Center

Login

Don't have an account? Register now (free) for customized features, flight alerts, and more!